< < Back
Terminal Aerodrome Forecast


Current Version              Previous Versions:   1  2  3  4  5  6  7  8  9  

Terminal Aerodrome Forecast

200
FTUS42 KILM 280520
TAFILM
TAF
KILM 280520Z 2806/2906 19004KT P6SM SCT012 BKN250
      TEMPO 2807/2811 00000KT 4SM BR BKN012
     FM281300 16006KT P6SM SCT035 SCT250
     FM281800 19009KT P6SM VCTS SCT040CB BKN060
      TEMPO 2819/2823 VRB15G25KT 4SM -TSRA BR BKN035CB OVC050
     FM290000 22009KT P6SM VCSH SCT040 BKN100=



Latest METAR

627
SAUS70 KWBC 281300
MTRILM
METAR KILM 281253Z AUTO VRB05KT 10SM FEW018 27/23 A3001 RMK AO2 SLP160
T02720233 PWINO


USA.gov is the U.S. government's official web portal to all federal, state and local government web resources and services.